sensor_id;sensor_type;location;lat;lon;timestamp;temperature;humidity
12264;DHT22;6194;49.010;8.414;2023-05-09T00:01:51;14.60;99.90
12264;DHT22;6194;49.010;8.414;2023-05-09T00:04:16;14.70;99.90
12264;DHT22;6194;49.010;8.414;2023-05-09T00:06:42;14.70;99.90
12264;DHT22;6194;49.010;8.414;2023-05-09T00:09:08;14.70;99.90
12264;DHT22;6194;49.010;8.414;2023-05-09T00:11:33;14.80;99.90
12264;DHT22;6194;49.010;8.414;2023-05-09T00:13:59;14.90;99.90
12264;DHT22;6194;49.010;8.414;2023-05-09T00:16:24;15.00;99.90
12264;DHT22;6194;49.010;8.414;2023-05-09T00:18:50;15.00;99.90
12264;DHT22;6194;49.010;8.414;2023-05-09T00:21:15;15.10;99.90
12264;DHT22;6194;49.010;8.414;2023-05-09T00:23:41;15.10;99.90
12264;DHT22;6194;49.010;8.414;2023-05-09T00:26:08;15.20;99.90
12264;DHT22;6194;49.010;8.414;2023-05-09T00:28:33;15.20;99.90
12264;DHT22;6194;49.010;8.414;2023-05-09T00:30:59;15.20;99.90
12264;DHT22;6194;49.010;8.414;2023-05-09T00:33:25;15.30;99.90
12264;DHT22;6194;49.010;8.414;2023-05-09T00:35:52;15.30;99.90
12264;DHT22;6194;49.010;8.414;2023-05-09T00:38:18;15.20;99.90
12264;DHT22;6194;49.010;8.414;2023-05-09T00:40:44;15.20;99.90
12264;DHT22;6194;49.010;8.414;2023-05-09T00:43:09;15.20;99.90
12264;DHT22;6194;49.010;8.414;2023-05-09T00:45:35;15.60;99.90
12264;DHT22;6194;49.010;8.414;2023-05-09T00:48:00;15.20;99.90
12264;DHT22;6194;49.010;8.414;2023-05-09T00:50:26;15.20;99.90
12264;DHT22;6194;49.010;8.414;2023-05-09T00:52:52;15.20;99.90
12264;DHT22;6194;49.010;8.414;2023-05-09T00:55:18;15.20;99.90
12264;DHT22;6194;49.010;8.414;2023-05-09T00:57:44;15.20;99.90
12264;DHT22;6194;49.010;8.414;2023-05-09T01:00:10;15.20;99.90
12264;DHT22;6194;49.010;8.414;2023-05-09T01:02:39;15.20;99.90
12264;DHT22;6194;49.010;8.414;2023-05-09T01:05:05;15.20;99.90
12264;DHT22;6194;49.010;8.414;2023-05-09T01:13:35;15.40;99.90
12264;DHT22;6194;49.010;8.414;2023-05-09T01:16:06;15.50;99.90
12264;DHT22;6194;49.010;8.414;2023-05-09T01:18:39;15.50;99.90
12264;DHT22;6194;49.010;8.414;2023-05-09T01:21:10;15.50;99.90
12264;DHT22;6194;49.010;8.414;2023-05-09T01:29:36;15.60;99.90
12264;DHT22;6194;49.010;8.414;2023-05-09T01:32:23;15.60;99.90
12264;DHT22;6194;49.010;8.414;2023-05-09T01:34:51;15.60;99.90
12264;DHT22;6194;49.010;8.414;2023-05-09T01:37:23;15.60;99.90
12264;DHT22;6194;49.010;8.414;2023-05-09T01:39:52;15.60;99.90
12264;DHT22;6194;49.010;8.414;2023-05-09T01:42:19;15.60;99.90
12264;DHT22;6194;49.010;8.414;2023-05-09T01:44:46;15.50;99.90
12264;DHT22;6194;49.010;8.414;2023-05-09T01:47:11;15.60;99.90
12264;DHT22;6194;49.010;8.414;2023-05-09T01:49:42;15.60;99.90
12264;DHT22;6194;49.010;8.414;2023-05-09T01:52:11;15.70;99.90
12264;DHT22;6194;49.010;8.414;2023-05-09T01:54:38;15.70;99.90
12264;DHT22;6194;49.010;8.414;2023-05-09T01:57:05;15.60;99.90
12264;DHT22;6194;49.010;8.414;2023-05-09T01:59:33;15.70;99.90
12264;DHT22;6194;49.010;8.414;2023-05-09T02:01:59;15.70;99.90
12264;DHT22;6194;49.010;8.414;2023-05-09T02:04:26;15.70;99.90
12264;DHT22;6194;49.010;8.414;2023-05-09T02:06:53;15.60;99.90
12264;DHT22;6194;49.010;8.414;2023-05-09T02:09:20;15.60;99.90
12264;DHT22;6194;49.010;8.414;2023-05-09T02:11:46;15.60;99.90
12264;DHT22;6194;49.010;8.414;2023-05-09T02:14:12;15.70;99.90
12264;DHT22;6194;49.010;8.414;2023-05-09T02:16:38;15.80;99.90
12264;DHT22;6194;49.010;8.414;2023-05-09T02:19:05;15.70;99.90
12264;DHT22;6194;49.010;8.414;2023-05-09T02:21:30;15.70;99.90
12264;DHT22;6194;49.010;8.414;2023-05-09T02:23:57;15.70;99.90
12264;DHT22;6194;49.010;8.414;2023-05-09T02:26:24;15.60;99.90
12264;DHT22;6194;49.010;8.414;2023-05-09T02:28:51;15.60;99.90
12264;DHT22;6194;49.010;8.414;2023-05-09T02:31:19;15.50;99.90
12264;DHT22;6194;49.010;8.414;2023-05-09T02:33:47;15.60;99.90
12264;DHT22;6194;49.010;8.414;2023-05-09T02:36:13;15.70;99.90
12264;DHT22;6194;49.010;8.414;2023-05-09T02:38:39;15.60;99.90
12264;DHT22;6194;49.010;8.414;2023-05-09T02:41:06;15.60;99.90
12264;DHT22;6194;49.010;8.414;2023-05-09T02:43:32;15.70;99.90
12264;DHT22;6194;49.010;8.414;2023-05-09T02:45:57;15.70;99.90
12264;DHT22;6194;49.010;8.414;2023-05-09T02:48:23;15.70;99.90
12264;DHT22;6194;49.010;8.414;2023-05-09T02:50:48;15.60;99.90
12264;DHT22;6194;49.010;8.414;2023-05-09T02:53:14;15.70;99.90
12264;DHT22;6194;49.010;8.414;2023-05-09T02:55:39;15.70;99.90
12264;DHT22;6194;49.010;8.414;2023-05-09T02:58:06;15.70;99.90
12264;DHT22;6194;49.010;8.414;2023-05-09T03:00:32;15.70;99.90
12264;DHT22;6194;49.010;8.414;2023-05-09T03:02:57;15.60;99.90
12264;DHT22;6194;49.010;8.414;2023-05-09T03:05:24;15.70;99.90
12264;DHT22;6194;49.010;8.414;2023-05-09T03:07:50;15.70;99.90
12264;DHT22;6194;49.010;8.414;2023-05-09T03:10:16;15.70;99.90
12264;DHT22;6194;49.010;8.414;2023-05-09T03:12:41;15.70;99.90
12264;DHT22;6194;49.010;8.414;2023-05-09T03:15:08;15.80;99.90
12264;DHT22;6194;49.010;8.414;2023-05-09T03:17:34;15.80;99.90
12264;DHT22;6194;49.010;8.414;2023-05-09T03:20:00;15.80;99.90
12264;DHT22;6194;49.010;8.414;2023-05-09T03:22:25;15.80;99.90
12264;DHT22;6194;49.010;8.414;2023-05-09T03:24:51;15.90;99.90
12264;DHT22;6194;49.010;8.414;2023-05-09T03:27:16;15.90;99.90
12264;DHT22;6194;49.010;8.414;2023-05-09T03:29:42;15.80;99.90
12264;DHT22;6194;49.010;8.414;2023-05-09T03:32:08;15.70;99.90
12264;DHT22;6194;49.010;8.414;2023-05-09T03:34:33;15.70;99.90
12264;DHT22;6194;49.010;8.414;2023-05-09T03:36:59;15.70;99.90
12264;DHT22;6194;49.010;8.414;2023-05-09T03:39:24;15.70;99.90
12264;DHT22;6194;49.010;8.414;2023-05-09T03:41:50;15.70;99.90
12264;DHT22;6194;49.010;8.414;2023-05-09T03:44:16;15.70;99.90
12264;DHT22;6194;49.010;8.414;2023-05-09T03:46:41;15.60;99.90
12264;DHT22;6194;49.010;8.414;2023-05-09T03:49:07;15.60;99.90
12264;DHT22;6194;49.010;8.414;2023-05-09T03:51:32;15.60;99.90
12264;DHT22;6194;49.010;8.414;2023-05-09T03:53:58;15.60;99.90
12264;DHT22;6194;49.010;8.414;2023-05-09T03:56:24;15.50;99.90
12264;DHT22;6194;49.010;8.414;2023-05-09T03:58:50;15.50;99.90
12264;DHT22;6194;49.010;8.414;2023-05-09T04:01:16;15.60;99.90
12264;DHT22;6194;49.010;8.414;2023-05-09T04:03:41;15.50;99.90
12264;DHT22;6194;49.010;8.414;2023-05-09T04:06:07;15.70;99.90
12264;DHT22;6194;49.010;8.414;2023-05-09T04:08:33;15.50;99.90
12264;DHT22;6194;49.010;8.414;2023-05-09T04:10:58;15.40;99.90
12264;DHT22;6194;49.010;8.414;2023-05-09T04:13:24;15.40;99.90
12264;DHT22;6194;49.010;8.414;2023-05-09T04:15:50;15.40;99.90
12264;DHT22;6194;49.010;8.414;2023-05-09T04:18:15;15.40;99.90
12264;DHT22;6194;49.010;8.414;2023-05-09T04:20:41;15.50;99.90
12264;DHT22;6194;49.010;8.414;2023-05-09T04:23:07;15.50;99.90
12264;DHT22;6194;49.010;8.414;2023-05-09T04:25:32;15.50;99.90
12264;DHT22;6194;49.010;8.414;2023-05-09T04:27:58;15.60;99.90
12264;DHT22;6194;49.010;8.414;2023-05-09T04:30:24;15.60;99.90
12264;DHT22;6194;49.010;8.414;2023-05-09T04:32:52;15.70;99.90
12264;DHT22;6194;49.010;8.414;2023-05-09T04:35:18;15.80;99.90
12264;DHT22;6194;49.010;8.414;2023-05-09T04:37:43;15.80;99.90
12264;DHT22;6194;49.010;8.414;2023-05-09T04:40:10;15.70;99.90
12264;DHT22;6194;49.010;8.414;2023-05-09T04:42:36;15.80;99.90
12264;DHT22;6194;49.010;8.414;2023-05-09T04:45:02;15.80;99.90
12264;DHT22;6194;49.010;8.414;2023-05-09T04:47:27;15.80;99.90
12264;DHT22;6194;49.010;8.414;2023-05-09T04:49:53;15.90;99.90
12264;DHT22;6194;49.010;8.414;2023-05-09T04:52:19;15.80;99.90
12264;DHT22;6194;49.010;8.414;2023-05-09T04:54:44;15.70;99.90
12264;DHT22;6194;49.010;8.414;2023-05-09T04:57:10;15.60;99.90
12264;DHT22;6194;49.010;8.414;2023-05-09T04:59:36;15.50;99.90
12264;DHT22;6194;49.010;8.414;2023-05-09T05:02:02;15.50;99.90
12264;DHT22;6194;49.010;8.414;2023-05-09T05:04:28;15.50;99.90
12264;DHT22;6194;49.010;8.414;2023-05-09T05:06:53;15.50;99.90
12264;DHT22;6194;49.010;8.414;2023-05-09T05:09:19;15.40;99.90
12264;DHT22;6194;49.010;8.414;2023-05-09T05:11:45;15.40;99.90
12264;DHT22;6194;49.010;8.414;2023-05-09T05:14:11;15.40;99.90
12264;DHT22;6194;49.010;8.414;2023-05-09T05:16:36;15.50;99.90
12264;DHT22;6194;49.010;8.414;2023-05-09T05:19:02;15.40;99.90
12264;DHT22;6194;49.010;8.414;2023-05-09T05:21:27;15.50;99.90
12264;DHT22;6194;49.010;8.414;2023-05-09T05:23:53;15.50;99.90
12264;DHT22;6194;49.010;8.414;2023-05-09T05:26:18;15.50;99.90
12264;DHT22;6194;49.010;8.414;2023-05-09T05:28:45;15.60;99.90
12264;DHT22;6194;49.010;8.414;2023-05-09T05:31:11;15.70;99.90
12264;DHT22;6194;49.010;8.414;2023-05-09T05:33:36;15.80;99.90
12264;DHT22;6194;49.010;8.414;2023-05-09T05:36:02;15.90;99.90
12264;DHT22;6194;49.010;8.414;2023-05-09T05:38:27;16.10;99.90
12264;DHT22;6194;49.010;8.414;2023-05-09T05:40:53;16.20;99.90
12264;DHT22;6194;49.010;8.414;2023-05-09T05:43:19;16.30;99.90
12264;DHT22;6194;49.010;8.414;2023-05-09T05:45:44;16.40;99.90
12264;DHT22;6194;49.010;8.414;2023-05-09T05:48:10;16.40;99.90
12264;DHT22;6194;49.010;8.414;2023-05-09T05:50:35;16.70;99.90
12264;DHT22;6194;49.010;8.414;2023-05-09T05:53:01;16.30;99.90
12264;DHT22;6194;49.010;8.414;2023-05-09T05:55:27;16.20;99.90
12264;DHT22;6194;49.010;8.414;2023-05-09T05:57:52;16.20;99.90
12264;DHT22;6194;49.010;8.414;2023-05-09T06:00:18;16.30;99.90
12264;DHT22;6194;49.010;8.414;2023-05-09T06:02:45;16.30;99.90
12264;DHT22;6194;49.010;8.414;2023-05-09T06:05:12;16.40;99.90
12264;DHT22;6194;49.010;8.414;2023-05-09T06:07:38;16.30;99.90
12264;DHT22;6194;49.010;8.414;2023-05-09T06:10:06;16.40;99.90
12264;DHT22;6194;49.010;8.414;2023-05-09T06:12:32;16.30;99.90
12264;DHT22;6194;49.010;8.414;2023-05-09T06:14:57;16.60;99.90
12264;DHT22;6194;49.010;8.414;2023-05-09T06:17:23;16.80;99.90
12264;DHT22;6194;49.010;8.414;2023-05-09T06:19:49;16.70;99.90
12264;DHT22;6194;49.010;8.414;2023-05-09T06:22:14;16.80;99.90
12264;DHT22;6194;49.010;8.414;2023-05-09T06:24:40;16.80;99.90
12264;DHT22;6194;49.010;8.414;2023-05-09T06:27:05;17.00;99.90
12264;DHT22;6194;49.010;8.414;2023-05-09T06:29:31;17.00;99.90
12264;DHT22;6194;49.010;8.414;2023-05-09T06:31:56;16.70;99.90
12264;DHT22;6194;49.010;8.414;2023-05-09T06:34:22;16.70;99.90
12264;DHT22;6194;49.010;8.414;2023-05-09T06:36:47;16.80;99.90
12264;DHT22;6194;49.010;8.414;2023-05-09T06:39:13;16.70;99.90
12264;DHT22;6194;49.010;8.414;2023-05-09T06:41:39;16.70;99.90
12264;DHT22;6194;49.010;8.414;2023-05-09T06:44:05;17.00;99.90
12264;DHT22;6194;49.010;8.414;2023-05-09T06:46:30;17.10;99.90
12264;DHT22;6194;49.010;8.414;2023-05-09T06:48:56;17.30;99.90
12264;DHT22;6194;49.010;8.414;2023-05-09T06:51:21;17.30;99.90
12264;DHT22;6194;49.010;8.414;2023-05-09T06:53:47;17.40;99.90
12264;DHT22;6194;49.010;8.414;2023-05-09T06:56:13;17.60;99.90
12264;DHT22;6194;49.010;8.414;2023-05-09T06:58:38;17.80;99.90
12264;DHT22;6194;49.010;8.414;2023-05-09T07:01:04;18.00;99.90
12264;DHT22;6194;49.010;8.414;2023-05-09T07:03:30;18.00;99.90
12264;DHT22;6194;49.010;8.414;2023-05-09T07:05:55;18.20;99.90
12264;DHT22;6194;49.010;8.414;2023-05-09T07:08:23;18.40;99.90
12264;DHT22;6194;49.010;8.414;2023-05-09T07:10:49;18.70;99.90
12264;DHT22;6194;49.010;8.414;2023-05-09T07:13:15;19.00;99.90
12264;DHT22;6194;49.010;8.414;2023-05-09T07:15:40;19.40;99.90
12264;DHT22;6194;49.010;8.414;2023-05-09T07:18:06;19.70;99.90
12264;DHT22;6194;49.010;8.414;2023-05-09T07:20:31;20.10;99.90
12264;DHT22;6194;49.010;8.414;2023-05-09T07:22:57;20.20;99.90
12264;DHT22;6194;49.010;8.414;2023-05-09T07:25:23;20.60;99.90
12264;DHT22;6194;49.010;8.414;2023-05-09T07:27:48;20.60;99.90
12264;DHT22;6194;49.010;8.414;2023-05-09T07:30:14;20.90;99.90
12264;DHT22;6194;49.010;8.414;2023-05-09T07:32:40;20.90;99.90
12264;DHT22;6194;49.010;8.414;2023-05-09T07:35:05;21.40;99.90
12264;DHT22;6194;49.010;8.414;2023-05-09T07:37:32;21.90;99.90
12264;DHT22;6194;49.010;8.414;2023-05-09T07:39:57;21.90;99.90
12264;DHT22;6194;49.010;8.414;2023-05-09T07:42:23;22.10;99.90
12264;DHT22;6194;49.010;8.414;2023-05-09T07:44:49;21.50;99.90
12264;DHT22;6194;49.010;8.414;2023-05-09T07:47:14;21.20;99.90
12264;DHT22;6194;49.010;8.414;2023-05-09T07:49:40;20.90;99.90
12264;DHT22;6194;49.010;8.414;2023-05-09T07:52:07;20.10;99.90
12264;DHT22;6194;49.010;8.414;2023-05-09T07:54:33;19.70;99.90
12264;DHT22;6194;49.010;8.414;2023-05-09T07:56:59;19.60;99.90
12264;DHT22;6194;49.010;8.414;2023-05-09T07:59:24;19.50;99.90
12264;DHT22;6194;49.010;8.414;2023-05-09T08:01:50;19.70;99.90
12264;DHT22;6194;49.010;8.414;2023-05-09T08:04:16;19.70;99.90
12264;DHT22;6194;49.010;8.414;2023-05-09T08:06:41;19.30;99.90
12264;DHT22;6194;49.010;8.414;2023-05-09T08:09:07;19.30;99.90
12264;DHT22;6194;49.010;8.414;2023-05-09T08:11:33;19.40;99.90
12264;DHT22;6194;49.010;8.414;2023-05-09T08:13:59;19.70;99.90
12264;DHT22;6194;49.010;8.414;2023-05-09T08:16:25;20.20;99.90
12264;DHT22;6194;49.010;8.414;2023-05-09T08:18:50;20.70;99.90
12264;DHT22;6194;49.010;8.414;2023-05-09T08:21:16;21.00;99.90
12264;DHT22;6194;49.010;8.414;2023-05-09T08:23:41;21.50;99.90
12264;DHT22;6194;49.010;8.414;2023-05-09T08:26:07;21.90;99.90
12264;DHT22;6194;49.010;8.414;2023-05-09T08:28:33;22.40;99.90
12264;DHT22;6194;49.010;8.414;2023-05-09T08:30:58;22.80;99.90
12264;DHT22;6194;49.010;8.414;2023-05-09T08:33:24;23.10;99.90
12264;DHT22;6194;49.010;8.414;2023-05-09T08:35:53;23.50;99.90
12264;DHT22;6194;49.010;8.414;2023-05-09T08:38:20;23.30;99.90
12264;DHT22;6194;49.010;8.414;2023-05-09T08:40:46;22.80;99.90
12264;DHT22;6194;49.010;8.414;2023-05-09T08:43:12;22.60;99.90
12264;DHT22;6194;49.010;8.414;2023-05-09T08:46:05;22.60;99.90
12264;DHT22;6194;49.010;8.414;2023-05-09T08:48:33;22.80;99.90
12264;DHT22;6194;49.010;8.414;2023-05-09T08:51:03;22.80;99.90
12264;DHT22;6194;49.010;8.414;2023-05-09T08:53:29;23.00;99.90
12264;DHT22;6194;49.010;8.414;2023-05-09T08:55:55;23.30;99.90
12264;DHT22;6194;49.010;8.414;2023-05-09T08:58:22;23.60;99.90
12264;DHT22;6194;49.010;8.414;2023-05-09T09:00:48;23.80;99.90
12264;DHT22;6194;49.010;8.414;2023-05-09T09:03:16;23.30;99.90
12264;DHT22;6194;49.010;8.414;2023-05-09T09:05:41;23.20;99.90
12264;DHT22;6194;49.010;8.414;2023-05-09T09:08:09;23.60;99.90
12264;DHT22;6194;49.010;8.414;2023-05-09T09:10:39;23.60;99.90
12264;DHT22;6194;49.010;8.414;2023-05-09T09:13:06;24.30;99.90
12264;DHT22;6194;49.010;8.414;2023-05-09T09:15:36;24.90;99.90
12264;DHT22;6194;49.010;8.414;2023-05-09T09:18:08;25.40;99.90
12264;DHT22;6194;49.010;8.414;2023-05-09T09:20:39;25.80;99.90
12264;DHT22;6194;49.010;8.414;2023-05-09T09:23:07;25.30;99.90
12264;DHT22;6194;49.010;8.414;2023-05-09T09:25:35;25.20;99.90
12264;DHT22;6194;49.010;8.414;2023-05-09T09:28:00;24.80;99.90
12264;DHT22;6194;49.010;8.414;2023-05-09T09:30:26;24.60;99.90
12264;DHT22;6194;49.010;8.414;2023-05-09T09:32:52;24.20;99.90
12264;DHT22;6194;49.010;8.414;2023-05-09T09:35:17;24.00;99.90
12264;DHT22;6194;49.010;8.414;2023-05-09T09:37:44;24.30;99.90
12264;DHT22;6194;49.010;8.414;2023-05-09T09:40:11;24.30;99.90
12264;DHT22;6194;49.010;8.414;2023-05-09T09:42:44;23.90;99.90
12264;DHT22;6194;49.010;8.414;2023-05-09T09:45:12;23.90;99.90
12264;DHT22;6194;49.010;8.414;2023-05-09T09:47:39;23.50;99.90
12264;DHT22;6194;49.010;8.414;2023-05-09T09:50:12;23.70;99.90
12264;DHT22;6194;49.010;8.414;2023-05-09T09:52:54;23.40;99.90
12264;DHT22;6194;49.010;8.414;2023-05-09T09:55:22;22.60;99.90
12264;DHT22;6194;49.010;8.414;2023-05-09T09:57:49;22.70;99.90
12264;DHT22;6194;49.010;8.414;2023-05-09T10:00:16;22.90;99.90
12264;DHT22;6194;49.010;8.414;2023-05-09T10:03:00;23.40;99.90
12264;DHT22;6194;49.010;8.414;2023-05-09T10:05:28;23.40;99.90
12264;DHT22;6194;49.010;8.414;2023-05-09T10:10:28;24.40;99.90
12264;DHT22;6194;49.010;8.414;2023-05-09T10:13:00;24.50;99.90
12264;DHT22;6194;49.010;8.414;2023-05-09T10:15:28;24.30;99.90
12264;DHT22;6194;49.010;8.414;2023-05-09T10:17:56;24.30;99.90
12264;DHT22;6194;49.010;8.414;2023-05-09T10:20:22;23.90;99.90
12264;DHT22;6194;49.010;8.414;2023-05-09T10:22:56;23.90;99.90
12264;DHT22;6194;49.010;8.414;2023-05-09T10:25:46;23.70;99.90
12264;DHT22;6194;49.010;8.414;2023-05-09T10:28:17;23.70;99.90
12264;DHT22;6194;49.010;8.414;2023-05-09T10:33:09;24.20;99.90
12264;DHT22;6194;49.010;8.414;2023-05-09T10:35:41;24.10;99.90
12264;DHT22;6194;49.010;8.414;2023-05-09T10:38:09;23.20;99.90
12264;DHT22;6194;49.010;8.414;2023-05-09T10:40:37;22.80;99.90
12264;DHT22;6194;49.010;8.414;2023-05-09T10:43:04;22.30;99.90
12264;DHT22;6194;49.010;8.414;2023-05-09T10:45:32;21.80;99.90
12264;DHT22;6194;49.010;8.414;2023-05-09T10:47:58;21.30;99.90
12264;DHT22;6194;49.010;8.414;2023-05-09T10:50:24;20.90;99.90
12264;DHT22;6194;49.010;8.414;2023-05-09T10:55:56;20.30;99.90
12264;DHT22;6194;49.010;8.414;2023-05-09T10:58:32;20.30;99.90
12264;DHT22;6194;49.010;8.414;2023-05-09T11:01:00;20.40;99.90
12264;DHT22;6194;49.010;8.414;2023-05-09T11:03:27;20.20;99.90
12264;DHT22;6194;49.010;8.414;2023-05-09T11:05:55;20.40;99.90
12264;DHT22;6194;49.010;8.414;2023-05-09T11:08:27;20.50;99.90
12264;DHT22;6194;49.010;8.414;2023-05-09T11:10:58;20.90;99.90
12264;DHT22;6194;49.010;8.414;2023-05-09T11:13:30;21.00;99.90
12264;DHT22;6194;49.010;8.414;2023-05-09T11:18:28;21.20;99.90
12264;DHT22;6194;49.010;8.414;2023-05-09T11:20:54;21.10;99.90
12264;DHT22;6194;49.010;8.414;2023-05-09T11:23:24;21.00;99.90
12264;DHT22;6194;49.010;8.414;2023-05-09T11:25:50;21.00;99.90
12264;DHT22;6194;49.010;8.414;2023-05-09T11:30:53;21.10;99.90
12264;DHT22;6194;49.010;8.414;2023-05-09T11:33:37;21.00;99.90
12264;DHT22;6194;49.010;8.414;2023-05-09T11:39:05;20.80;99.90
12264;DHT22;6194;49.010;8.414;2023-05-09T11:41:35;20.70;99.90
12264;DHT22;6194;49.010;8.414;2023-05-09T11:44:10;20.80;99.90
12264;DHT22;6194;49.010;8.414;2023-05-09T11:46:36;20.90;99.90
12264;DHT22;6194;49.010;8.414;2023-05-09T11:49:05;21.20;99.90
12264;DHT22;6194;49.010;8.414;2023-05-09T11:51:31;21.60;99.90
12264;DHT22;6194;49.010;8.414;2023-05-09T11:54:00;21.80;99.90
12264;DHT22;6194;49.010;8.414;2023-05-09T11:56:26;22.20;99.90
12264;DHT22;6194;49.010;8.414;2023-05-09T11:58:52;22.30;99.90
12264;DHT22;6194;49.010;8.414;2023-05-09T12:01:17;22.60;99.90
12264;DHT22;6194;49.010;8.414;2023-05-09T12:03:44;22.80;99.90
12264;DHT22;6194;49.010;8.414;2023-05-09T12:06:14;22.50;99.90
12264;DHT22;6194;49.010;8.414;2023-05-09T12:08:40;22.00;99.90
12264;DHT22;6194;49.010;8.414;2023-05-09T12:11:07;21.60;99.90
12264;DHT22;6194;49.010;8.414;2023-05-09T12:13:33;21.30;99.90
12264;DHT22;6194;49.010;8.414;2023-05-09T12:16:00;21.10;99.90
12264;DHT22;6194;49.010;8.414;2023-05-09T12:18:26;20.80;99.90
12264;DHT22;6194;49.010;8.414;2023-05-09T12:20:52;21.20;99.90
12264;DHT22;6194;49.010;8.414;2023-05-09T12:23:18;21.10;99.90
12264;DHT22;6194;49.010;8.414;2023-05-09T12:25:54;21.50;99.90
12264;DHT22;6194;49.010;8.414;2023-05-09T12:28:22;21.90;99.90
12264;DHT22;6194;49.010;8.414;2023-05-09T12:30:48;22.20;99.90
12264;DHT22;6194;49.010;8.414;2023-05-09T12:33:14;22.70;99.90
12264;DHT22;6194;49.010;8.414;2023-05-09T12:35:44;22.10;99.90
12264;DHT22;6194;49.010;8.414;2023-05-09T12:38:13;22.60;99.90
12264;DHT22;6194;49.010;8.414;2023-05-09T12:40:40;22.90;99.90
12264;DHT22;6194;49.010;8.414;2023-05-09T12:43:06;22.90;99.90
12264;DHT22;6194;49.010;8.414;2023-05-09T12:45:31;22.50;99.90
12264;DHT22;6194;49.010;8.414;2023-05-09T12:47:58;22.10;99.90
12264;DHT22;6194;49.010;8.414;2023-05-09T12:50:32;21.90;99.90
12264;DHT22;6194;49.010;8.414;2023-05-09T12:53:01;21.90;99.90
12264;DHT22;6194;49.010;8.414;2023-05-09T12:55:29;21.70;99.90
12264;DHT22;6194;49.010;8.414;2023-05-09T12:57:59;21.90;99.90
12264;DHT22;6194;49.010;8.414;2023-05-09T13:00:25;22.10;99.90
12264;DHT22;6194;49.010;8.414;2023-05-09T13:02:51;22.00;99.90
12264;DHT22;6194;49.010;8.414;2023-05-09T13:05:19;22.00;99.90
12264;DHT22;6194;49.010;8.414;2023-05-09T13:07:47;21.60;99.90
12264;DHT22;6194;49.010;8.414;2023-05-09T13:10:23;21.90;99.90
12264;DHT22;6194;49.010;8.414;2023-05-09T13:12:50;22.10;99.90
12264;DHT22;6194;49.010;8.414;2023-05-09T13:15:18;22.20;99.90
12264;DHT22;6194;49.010;8.414;2023-05-09T13:17:47;21.80;99.90
12264;DHT22;6194;49.010;8.414;2023-05-09T13:20:13;22.10;99.90
12264;DHT22;6194;49.010;8.414;2023-05-09T13:22:40;22.30;99.90
12264;DHT22;6194;49.010;8.414;2023-05-09T13:25:06;22.60;99.90
12264;DHT22;6194;49.010;8.414;2023-05-09T13:27:32;23.00;99.90
12264;DHT22;6194;49.010;8.414;2023-05-09T13:29:58;23.30;99.90
12264;DHT22;6194;49.010;8.414;2023-05-09T13:32:24;23.50;99.90
12264;DHT22;6194;49.010;8.414;2023-05-09T13:34:50;23.90;99.90
12264;DHT22;6194;49.010;8.414;2023-05-09T13:37:16;24.10;99.90
12264;DHT22;6194;49.010;8.414;2023-05-09T13:39:41;24.20;99.90
12264;DHT22;6194;49.010;8.414;2023-05-09T13:42:07;24.30;99.90
12264;DHT22;6194;49.010;8.414;2023-05-09T13:44:33;25.20;99.90
12264;DHT22;6194;49.010;8.414;2023-05-09T13:46:58;23.60;99.90
12264;DHT22;6194;49.010;8.414;2023-05-09T13:49:25;22.90;99.90
12264;DHT22;6194;49.010;8.414;2023-05-09T13:51:52;24.20;99.90
12264;DHT22;6194;49.010;8.414;2023-05-09T13:54:18;23.60;99.90
12264;DHT22;6194;49.010;8.414;2023-05-09T13:56:44;23.90;99.90
12264;DHT22;6194;49.010;8.414;2023-05-09T13:59:10;23.80;99.90
12264;DHT22;6194;49.010;8.414;2023-05-09T14:01:35;23.00;99.90
12264;DHT22;6194;49.010;8.414;2023-05-09T14:04:01;22.80;99.90
12264;DHT22;6194;49.010;8.414;2023-05-09T14:06:27;23.00;99.90
12264;DHT22;6194;49.010;8.414;2023-05-09T14:08:56;22.80;99.90
12264;DHT22;6194;49.010;8.414;2023-05-09T14:11:22;23.10;99.90
12264;DHT22;6194;49.010;8.414;2023-05-09T14:13:49;23.40;99.90
12264;DHT22;6194;49.010;8.414;2023-05-09T14:16:15;23.80;99.90
12264;DHT22;6194;49.010;8.414;2023-05-09T14:18:40;23.90;99.90
12264;DHT22;6194;49.010;8.414;2023-05-09T14:21:06;23.60;99.90
12264;DHT22;6194;49.010;8.414;2023-05-09T14:23:32;24.20;99.90
12264;DHT22;6194;49.010;8.414;2023-05-09T14:25:57;24.70;99.90
12264;DHT22;6194;49.010;8.414;2023-05-09T14:28:23;24.70;99.90
12264;DHT22;6194;49.010;8.414;2023-05-09T14:30:49;24.50;99.90
12264;DHT22;6194;49.010;8.414;2023-05-09T14:33:14;24.40;99.90
12264;DHT22;6194;49.010;8.414;2023-05-09T14:35:40;24.10;99.90
12264;DHT22;6194;49.010;8.414;2023-05-09T14:38:06;24.50;99.90
12264;DHT22;6194;49.010;8.414;2023-05-09T14:40:31;24.50;99.90
12264;DHT22;6194;49.010;8.414;2023-05-09T14:42:58;24.60;99.90
12264;DHT22;6194;49.010;8.414;2023-05-09T14:45:24;24.60;99.90
12264;DHT22;6194;49.010;8.414;2023-05-09T14:47:50;24.40;99.90
12264;DHT22;6194;49.010;8.414;2023-05-09T14:50:17;24.50;99.90
12264;DHT22;6194;49.010;8.414;2023-05-09T14:52:43;24.60;99.90
12264;DHT22;6194;49.010;8.414;2023-05-09T14:55:08;24.50;99.90
12264;DHT22;6194;49.010;8.414;2023-05-09T14:57:34;24.60;99.90
12264;DHT22;6194;49.010;8.414;2023-05-09T15:00:00;24.20;99.90
12264;DHT22;6194;49.010;8.414;2023-05-09T15:02:25;24.70;99.90
12264;DHT22;6194;49.010;8.414;2023-05-09T15:04:51;24.70;99.90
12264;DHT22;6194;49.010;8.414;2023-05-09T15:07:17;24.50;99.90
12264;DHT22;6194;49.010;8.414;2023-05-09T15:09:43;24.40;99.90
12264;DHT22;6194;49.010;8.414;2023-05-09T15:12:08;24.30;99.90
12264;DHT22;6194;49.010;8.414;2023-05-09T15:14:34;24.10;99.90
12264;DHT22;6194;49.010;8.414;2023-05-09T15:16:59;24.20;99.90
12264;DHT22;6194;49.010;8.414;2023-05-09T15:19:28;24.10;99.90
12264;DHT22;6194;49.010;8.414;2023-05-09T15:21:58;24.00;99.90
12264;DHT22;6194;49.010;8.414;2023-05-09T15:24:24;23.80;99.90
12264;DHT22;6194;49.010;8.414;2023-05-09T15:26:50;24.00;99.90
12264;DHT22;6194;49.010;8.414;2023-05-09T15:29:16;23.90;99.90
12264;DHT22;6194;49.010;8.414;2023-05-09T15:31:41;24.10;99.90
12264;DHT22;6194;49.010;8.414;2023-05-09T15:34:07;23.70;99.90
12264;DHT22;6194;49.010;8.414;2023-05-09T15:36:32;23.80;99.90
12264;DHT22;6194;49.010;8.414;2023-05-09T15:38:58;23.80;99.90
12264;DHT22;6194;49.010;8.414;2023-05-09T15:41:24;23.90;99.90
12264;DHT22;6194;49.010;8.414;2023-05-09T15:43:50;23.80;99.90
12264;DHT22;6194;49.010;8.414;2023-05-09T15:46:16;23.70;99.90
12264;DHT22;6194;49.010;8.414;2023-05-09T15:48:42;23.70;99.90
12264;DHT22;6194;49.010;8.414;2023-05-09T15:51:07;23.50;99.90
12264;DHT22;6194;49.010;8.414;2023-05-09T15:53:34;23.50;99.90
12264;DHT22;6194;49.010;8.414;2023-05-09T15:55:59;23.60;99.90
12264;DHT22;6194;49.010;8.414;2023-05-09T15:58:26;23.50;99.90
12264;DHT22;6194;49.010;8.414;2023-05-09T16:00:52;23.30;99.90
12264;DHT22;6194;49.010;8.414;2023-05-09T16:03:17;23.30;99.90
12264;DHT22;6194;49.010;8.414;2023-05-09T16:05:43;23.10;99.90
12264;DHT22;6194;49.010;8.414;2023-05-09T16:08:09;23.00;99.90
12264;DHT22;6194;49.010;8.414;2023-05-09T16:10:35;22.90;99.90